createdAt,value
2023-02-03T00:01:51.098Z,7.92
2023-02-03T00:04:17.670Z,7.91
2023-02-03T00:06:44.694Z,7.94
2023-02-03T00:09:11.447Z,7.98
2023-02-03T00:11:38.154Z,8.01
2023-02-03T00:14:05.579Z,8.03
2023-02-03T00:16:32.195Z,8.03
2023-02-03T00:18:58.669Z,8.05
2023-02-03T00:21:25.032Z,8.04
2023-02-03T00:23:51.685Z,8.04
2023-02-03T00:26:18.322Z,8.03
2023-02-03T00:28:45.345Z,8.01
2023-02-03T00:31:19.571Z,7.99
2023-02-03T00:33:46.374Z,8.01
2023-02-03T00:36:12.912Z,7.99
2023-02-03T00:38:39.393Z,8.01
2023-02-03T00:41:07.042Z,7.99
2023-02-03T00:43:33.654Z,8.00
2023-02-03T00:46:00.469Z,7.98
2023-02-03T00:48:35.985Z,7.97
2023-02-03T00:51:02.669Z,7.99
2023-02-03T00:53:35.206Z,7.99
2023-02-03T00:56:01.847Z,8.02
2023-02-03T00:58:28.217Z,8.01
2023-02-03T01:00:56.980Z,7.99
2023-02-03T01:03:23.480Z,7.99
2023-02-03T01:05:49.923Z,7.98
2023-02-03T01:08:16.299Z,7.97
2023-02-03T01:10:42.854Z,7.97
2023-02-03T01:13:09.410Z,7.97
2023-02-03T01:15:35.905Z,8.00
2023-02-03T01:18:02.259Z,8.04
2023-02-03T01:20:29.066Z,8.05
2023-02-03T01:22:55.745Z,8.05
2023-02-03T01:25:22.111Z,8.07
2023-02-03T01:27:48.513Z,8.07
2023-02-03T01:30:15.268Z,8.08
2023-02-03T01:32:41.690Z,8.08
2023-02-03T01:35:08.260Z,8.04
2023-02-03T01:37:34.663Z,8.02
2023-02-03T01:40:01.091Z,8.03
2023-02-03T01:42:31.975Z,8.03
2023-02-03T01:44:58.466Z,8.01
2023-02-03T01:47:30.425Z,7.99
2023-02-03T01:50:03.968Z,7.98
2023-02-03T01:52:32.626Z,7.95
2023-02-03T01:58:03.523Z,7.95
2023-02-03T02:00:30.220Z,7.98
2023-02-03T02:03:00.483Z,7.99
2023-02-03T02:05:31.698Z,8.00
2023-02-03T02:08:01.885Z,7.97
2023-02-03T02:10:30.137Z,7.98
2023-02-03T02:12:58.271Z,7.98
2023-02-03T02:15:44.552Z,7.99
2023-02-03T02:18:18.093Z,8.00
2023-02-03T02:21:24.560Z,8.01
2023-02-03T02:24:06.173Z,8.05
2023-02-03T02:27:00.303Z,8.09
2023-02-03T02:29:45.443Z,8.09
2023-02-03T02:32:32.587Z,8.14
2023-02-03T02:35:23.488Z,8.13
2023-02-03T02:38:11.620Z,8.13
2023-02-03T02:40:56.002Z,8.10
2023-02-03T02:43:22.354Z,8.08
2023-02-03T02:45:52.463Z,8.08
2023-02-03T02:48:59.592Z,8.06
2023-02-03T02:51:29.441Z,8.05
2023-02-03T02:54:00.285Z,8.04
2023-02-03T02:56:29.257Z,8.04
2023-02-03T02:58:58.632Z,8.05
2023-02-03T03:01:25.114Z,8.06
2023-02-03T03:03:52.093Z,8.07
2023-02-03T03:06:27.356Z,8.08
2023-02-03T03:09:00.383Z,8.07
2023-02-03T03:11:30.104Z,8.08
2023-02-03T03:13:57.266Z,8.07
2023-02-03T03:16:27.029Z,8.08
2023-02-03T03:18:59.439Z,8.11
2023-02-03T03:21:31.726Z,8.11
2023-02-03T03:24:01.443Z,8.10
2023-02-03T03:26:33.126Z,8.09
2023-02-03T03:29:14.836Z,8.12
2023-02-03T03:31:41.928Z,8.14
2023-02-03T03:34:10.952Z,8.17
2023-02-03T03:36:46.404Z,8.20
2023-02-03T03:39:24.480Z,8.24
2023-02-03T03:42:04.034Z,8.23
2023-02-03T03:44:38.670Z,8.22
2023-02-03T03:47:14.137Z,8.20
2023-02-03T03:49:45.754Z,8.21
2023-02-03T03:52:18.088Z,8.20
2023-02-03T03:54:46.490Z,8.22
2023-02-03T03:57:21.989Z,8.22
2023-02-03T03:59:49.575Z,8.20
2023-02-03T04:02:18.799Z,8.21
2023-02-03T04:04:46.724Z,8.21
2023-02-03T04:07:14.101Z,8.19
2023-02-03T04:09:42.812Z,8.22
2023-02-03T04:12:22.554Z,8.22
2023-02-03T04:14:48.923Z,8.21
2023-02-03T04:17:15.385Z,8.21
2023-02-03T04:19:41.834Z,8.22
2023-02-03T04:22:08.343Z,8.22
2023-02-03T04:24:34.936Z,8.25
2023-02-03T04:27:02.685Z,8.27
2023-02-03T04:29:30.390Z,8.26
2023-02-03T04:31:57.033Z,8.30
2023-02-03T04:34:23.590Z,8.32
2023-02-03T04:36:50.025Z,8.34
2023-02-03T04:39:16.424Z,8.38
2023-02-03T04:41:42.776Z,8.40
2023-02-03T04:44:09.513Z,8.41
2023-02-03T04:46:35.936Z,8.41
2023-02-03T04:49:02.426Z,8.40
2023-02-03T04:51:28.821Z,8.40
2023-02-03T04:53:55.529Z,8.39
2023-02-03T04:56:21.949Z,8.39
2023-02-03T04:58:48.483Z,8.38
2023-02-03T05:01:14.900Z,8.38
2023-02-03T05:03:44.463Z,8.38
2023-02-03T05:06:10.969Z,8.39
2023-02-03T05:08:37.621Z,8.39
2023-02-03T05:11:05.784Z,8.38
2023-02-03T05:13:32.854Z,8.40
2023-02-03T05:16:05.650Z,8.41
2023-02-03T05:18:32.193Z,8.41
2023-02-03T05:21:05.951Z,8.44
2023-02-03T05:23:33.950Z,8.48
2023-02-03T05:26:01.864Z,8.47
2023-02-03T05:28:28.357Z,8.50
2023-02-03T05:31:05.047Z,8.49
2023-02-03T05:33:34.856Z,8.48
2023-02-03T05:36:01.220Z,8.47
2023-02-03T05:38:27.651Z,8.49
2023-02-03T05:41:26.453Z,8.52
2023-02-03T05:43:52.877Z,8.53
2023-02-03T05:46:19.756Z,8.53
2023-02-03T05:48:46.150Z,8.56
2023-02-03T05:51:12.779Z,8.58
2023-02-03T05:53:39.245Z,8.59
2023-02-03T05:56:06.047Z,8.55
2023-02-03T05:58:32.390Z,8.54
2023-02-03T06:00:58.753Z,8.54
2023-02-03T06:03:25.333Z,8.53
2023-02-03T06:05:51.834Z,8.49
2023-02-03T06:08:18.194Z,8.48
2023-02-03T06:10:44.637Z,8.50
2023-02-03T06:13:13.490Z,8.48
2023-02-03T06:15:40.763Z,8.45
2023-02-03T06:18:08.107Z,8.47
2023-02-03T06:20:35.096Z,8.45
2023-02-03T06:23:04.581Z,8.42
2023-02-03T06:25:32.687Z,8.41
2023-02-03T06:28:02.357Z,8.41
2023-02-03T06:30:29.541Z,8.43
2023-02-03T06:32:56.306Z,8.43
2023-02-03T06:35:22.677Z,8.44
2023-02-03T06:37:49.170Z,8.42
2023-02-03T06:40:15.601Z,8.43
2023-02-03T06:42:46.066Z,8.44
2023-02-03T06:45:13.058Z,8.44
2023-02-03T06:47:41.270Z,8.48
2023-02-03T06:50:09.410Z,8.52
2023-02-03T06:52:36.140Z,8.52
2023-02-03T06:55:03.586Z,8.55
2023-02-03T06:57:29.995Z,8.55
2023-02-03T06:59:56.568Z,8.55
2023-02-03T07:02:22.990Z,8.55
2023-02-03T07:04:49.460Z,8.54
2023-02-03T07:07:16.052Z,8.52
2023-02-03T07:09:46.120Z,8.52
2023-02-03T07:12:12.604Z,8.51
2023-02-03T07:14:39.446Z,8.50
2023-02-03T07:17:06.944Z,8.46
2023-02-03T07:19:33.396Z,8.45
2023-02-03T07:21:59.973Z,8.45
2023-02-03T07:24:26.379Z,8.46
2023-02-03T07:26:53.120Z,8.44
2023-02-03T07:29:19.500Z,8.42
2023-02-03T07:31:46.399Z,8.44
2023-02-03T07:34:13.190Z,8.43
2023-02-03T07:36:39.653Z,8.45
2023-02-03T07:39:06.301Z,8.45
2023-02-03T07:41:33.026Z,8.46
2023-02-03T07:43:59.537Z,8.45
2023-02-03T07:46:26.119Z,8.46
2023-02-03T07:48:52.629Z,8.49
2023-02-03T07:51:28.390Z,8.52
2023-02-03T07:53:56.927Z,8.58
2023-02-03T07:56:23.316Z,8.59
2023-02-03T07:58:52.543Z,8.61
2023-02-03T08:01:19.189Z,8.64
2023-02-03T08:03:45.645Z,8.66
2023-02-03T08:06:12.047Z,8.67
2023-02-03T08:08:38.610Z,8.66
2023-02-03T08:11:05.486Z,8.65
2023-02-03T08:13:31.895Z,8.64
2023-02-03T08:15:58.561Z,8.64
2023-02-03T08:18:25.373Z,8.68
2023-02-03T08:20:55.537Z,8.68
2023-02-03T08:23:21.942Z,8.69
2023-02-03T08:25:57.767Z,8.69
2023-02-03T08:28:24.180Z,8.72
2023-02-03T08:30:50.935Z,8.72
2023-02-03T08:33:17.621Z,8.75
2023-02-03T08:35:50.245Z,8.75
2023-02-03T08:38:24.668Z,8.74
2023-02-03T08:40:51.382Z,8.74
2023-02-03T08:43:17.852Z,8.76
2023-02-03T08:45:50.621Z,8.79
2023-02-03T08:48:17.093Z,8.78
2023-02-03T08:50:44.512Z,8.81
2023-02-03T08:53:11.161Z,8.81
2023-02-03T08:55:40.680Z,8.85
2023-02-03T08:58:10.251Z,8.92
2023-02-03T09:00:36.692Z,8.97
2023-02-03T09:03:04.276Z,9.04
2023-02-03T09:05:31.428Z,9.09
2023-02-03T09:07:58.083Z,9.13
2023-02-03T09:10:24.625Z,9.18
2023-02-03T09:12:51.052Z,9.23
2023-02-03T09:15:17.721Z,9.26
2023-02-03T09:17:44.204Z,9.29
2023-02-03T09:20:13.634Z,9.29
2023-02-03T09:22:40.132Z,9.30
2023-02-03T09:25:07.537Z,9.32
2023-02-03T09:27:33.913Z,9.35
2023-02-03T09:30:00.413Z,9.38
2023-02-03T09:32:27.211Z,9.38
2023-02-03T09:34:53.714Z,9.41
2023-02-03T09:37:20.308Z,9.43
2023-02-03T09:39:48.888Z,9.46
2023-02-03T09:42:54.444Z,9.46
2023-02-03T09:45:29.453Z,9.47
2023-02-03T09:48:04.120Z,9.46
2023-02-03T09:50:35.071Z,9.45
2023-02-03T09:53:12.634Z,9.43
2023-02-03T09:55:46.516Z,9.40
2023-02-03T09:58:16.349Z,9.41
2023-02-03T10:01:06.612Z,9.43
2023-02-03T10:03:45.353Z,9.43
2023-02-03T10:06:28.210Z,9.49
2023-02-03T10:09:19.251Z,9.54
2023-02-03T10:11:54.990Z,9.57
2023-02-03T10:14:55.135Z,9.60
2023-02-03T10:17:43.201Z,9.60
2023-02-03T10:20:09.735Z,9.59
2023-02-03T10:22:48.520Z,9.59
2023-02-03T10:25:14.896Z,9.62
2023-02-03T10:27:43.831Z,9.63
2023-02-03T10:30:23.989Z,9.65
2023-02-03T10:33:18.292Z,9.64
2023-02-03T10:36:21.481Z,9.68
2023-02-03T10:39:01.397Z,9.70
2023-02-03T10:41:30.194Z,9.70
2023-02-03T10:44:00.911Z,9.71
2023-02-03T10:46:40.467Z,9.72
2023-02-03T10:49:07.110Z,9.74
2023-02-03T10:51:38.696Z,9.75
2023-02-03T10:54:26.762Z,9.77
2023-02-03T10:59:47.871Z,9.82
2023-02-03T11:02:25.838Z,9.86
2023-02-03T11:05:21.113Z,9.88
2023-02-03T11:07:48.494Z,9.91
2023-02-03T11:10:35.584Z,9.93
2023-02-03T11:13:23.790Z,9.94
2023-02-03T11:16:03.878Z,9.92
2023-02-03T11:18:38.460Z,9.92
2023-02-03T11:21:11.998Z,9.91
2023-02-03T11:23:46.764Z,9.89
2023-02-03T11:26:18.101Z,9.87
2023-02-03T11:28:48.233Z,9.82
2023-02-03T11:31:35.104Z,9.75
2023-02-03T11:34:15.442Z,9.75
2023-02-03T11:36:42.060Z,9.74
2023-02-03T11:39:25.869Z,9.72
2023-02-03T11:41:52.821Z,9.74
2023-02-03T11:44:29.114Z,9.75
2023-02-03T11:47:00.663Z,9.70
2023-02-03T11:49:47.801Z,9.67
2023-02-03T11:52:38.057Z,9.67
2023-02-03T11:55:04.397Z,9.70
2023-02-03T11:58:25.940Z,9.67
2023-02-03T12:00:59.480Z,9.65
2023-02-03T12:07:08.390Z,9.66
2023-02-03T12:09:52.513Z,9.67
2023-02-03T12:12:45.635Z,9.67
2023-02-03T12:15:33.464Z,9.69
2023-02-03T12:18:18.962Z,9.73
2023-02-03T12:21:30.591Z,9.73
2023-02-03T12:24:28.231Z,9.72
2023-02-03T12:27:00.842Z,9.66
2023-02-03T12:29:38.389Z,9.58
2023-02-03T12:32:26.670Z,9.54
2023-02-03T12:35:13.634Z,9.46
2023-02-03T12:37:53.582Z,9.39
2023-02-03T12:40:39.479Z,9.35
2023-02-03T12:43:39.427Z,9.33
2023-02-03T12:46:13.652Z,9.29
2023-02-03T12:48:51.824Z,9.25
2023-02-03T12:51:38.275Z,9.20
2023-02-03T12:54:31.218Z,9.16
2023-02-03T12:57:11.723Z,9.11
2023-02-03T12:59:40.439Z,9.09
2023-02-03T13:02:18.484Z,9.11
2023-02-03T13:04:53.861Z,9.12
2023-02-03T13:07:32.309Z,9.10
2023-02-03T13:10:12.605Z,9.12
2023-02-03T13:12:47.348Z,9.12
2023-02-03T13:15:28.550Z,9.16
2023-02-03T13:18:15.670Z,9.21
2023-02-03T13:20:42.421Z,9.30
2023-02-03T13:23:14.839Z,9.34
2023-02-03T13:25:59.908Z,9.38
2023-02-03T13:28:39.549Z,9.44
2023-02-03T13:31:27.922Z,9.48
2023-02-03T13:34:00.569Z,9.47
2023-02-03T13:36:56.930Z,9.45
2023-02-03T13:39:35.275Z,9.45
2023-02-03T13:42:12.787Z,9.41
2023-02-03T13:44:41.090Z,9.41
2023-02-03T13:47:16.742Z,9.40
2023-02-03T13:49:47.636Z,9.41
2023-02-03T13:52:34.334Z,9.35
2023-02-03T13:55:02.257Z,9.35
2023-02-03T13:57:37.879Z,9.37
2023-02-03T14:00:26.921Z,9.36
2023-02-03T14:02:55.421Z,9.37
2023-02-03T14:05:55.630Z,9.36
2023-02-03T14:08:30.335Z,9.35
2023-02-03T14:11:34.788Z,9.38
2023-02-03T14:14:04.330Z,9.41
2023-02-03T14:16:35.665Z,9.40
2023-02-03T14:19:14.032Z,9.39
2023-02-03T14:21:51.840Z,9.38
2023-02-03T14:24:19.159Z,9.39
2023-02-03T14:26:52.751Z,9.42
2023-02-03T14:29:36.632Z,9.42
2023-02-03T14:32:08.623Z,9.45
2023-02-03T14:34:38.482Z,9.44
2023-02-03T14:37:23.506Z,9.41
2023-02-03T14:39:55.959Z,9.39
2023-02-03T14:42:41.405Z,9.36
2023-02-03T14:45:25.550Z,9.29
2023-02-03T14:48:11.213Z,9.22
2023-02-03T14:50:43.593Z,9.19
2023-02-03T14:53:26.172Z,9.18
2023-02-03T14:56:10.108Z,9.17
2023-02-03T14:58:44.491Z,9.16
2023-02-03T15:01:29.183Z,9.11
2023-02-03T15:04:10.921Z,9.10
2023-02-03T15:06:43.227Z,9.07
2023-02-03T15:09:51.562Z,9.06
2023-02-03T15:12:22.521Z,9.03
2023-02-03T15:14:48.999Z,9.00
2023-02-03T15:17:28.137Z,8.98
2023-02-03T15:19:54.960Z,8.97
2023-02-03T15:22:30.350Z,8.95
2023-02-03T15:25:00.031Z,8.92
2023-02-03T15:27:28.999Z,8.92
2023-02-03T15:29:58.941Z,8.94
2023-02-03T15:32:39.963Z,8.95
2023-02-03T15:35:11.529Z,8.95
2023-02-03T15:37:50.516Z,8.96
2023-02-03T15:40:18.845Z,8.95
2023-02-03T15:42:51.650Z,8.95
2023-02-03T15:45:31.286Z,8.93
2023-02-03T15:48:06.368Z,8.89
2023-02-03T15:50:43.080Z,8.85
2023-02-03T15:53:47.142Z,8.81
2023-02-03T15:56:22.019Z,8.78
2023-02-03T15:58:49.529Z,8.75
2023-02-03T16:01:21.761Z,8.70
2023-02-03T16:03:54.360Z,8.69
2023-02-03T16:06:40.583Z,8.65
2023-02-03T16:09:41.922Z,8.60
2023-02-03T16:12:23.651Z,8.56
2023-02-03T16:15:00.604Z,8.53
2023-02-03T16:17:42.818Z,8.51
2023-02-03T16:20:12.131Z,8.46
2023-02-03T16:22:46.980Z,8.43
2023-02-03T16:25:23.048Z,8.40
2023-02-03T16:28:35.079Z,8.37
2023-02-03T16:31:32.925Z,8.33
2023-02-03T16:34:19.697Z,8.34
2023-02-03T16:37:05.229Z,8.35
2023-02-03T16:39:50.365Z,8.40
2023-02-03T16:42:37.527Z,8.41
2023-02-03T16:45:30.119Z,8.43
2023-02-03T16:48:15.203Z,8.41
2023-02-03T16:50:57.557Z,8.37
2023-02-03T16:53:30.295Z,8.31
2023-02-03T16:55:59.299Z,8.27
2023-02-03T16:58:25.858Z,8.24
2023-02-03T17:00:53.395Z,8.19
2023-02-03T17:03:22.218Z,8.16
2023-02-03T17:05:50.258Z,8.12
2023-02-03T17:08:18.619Z,8.08
2023-02-03T17:10:46.227Z,8.06
2023-02-03T17:13:12.954Z,8.01
2023-02-03T17:15:47.542Z,8.00
2023-02-03T17:18:15.083Z,7.99
2023-02-03T17:20:42.852Z,7.98
2023-02-03T17:23:10.004Z,7.95
2023-02-03T17:25:37.840Z,7.95
2023-02-03T17:28:05.952Z,7.94
2023-02-03T17:30:35.150Z,7.91
2023-02-03T17:33:03.509Z,7.89
2023-02-03T17:35:30.415Z,7.88
2023-02-03T17:37:57.189Z,7.89
2023-02-03T17:54:09.279Z,7.97
2023-02-03T17:56:35.851Z,7.90
2023-02-03T17:59:04.895Z,7.84
2023-02-03T18:01:32.293Z,7.78
2023-02-03T18:04:02.131Z,7.75
2023-02-03T18:06:30.683Z,7.71
2023-02-03T18:09:02.260Z,7.69
2023-02-03T18:11:30.477Z,7.66
2023-02-03T18:13:56.862Z,7.64
2023-02-03T18:16:26.465Z,7.62
2023-02-03T18:18:53.815Z,7.60
2023-02-03T18:21:22.220Z,7.57
2023-02-03T18:23:51.092Z,7.56
2023-02-03T18:26:19.766Z,7.53
2023-02-03T18:28:47.104Z,7.51
2023-02-03T18:31:17.582Z,7.53
2023-02-03T18:33:46.160Z,7.55
2023-02-03T18:36:15.673Z,7.54
2023-02-03T18:38:44.941Z,7.53
2023-02-03T18:41:17.620Z,7.53
2023-02-03T18:43:44.997Z,7.55
2023-02-03T18:46:15.880Z,7.59
2023-02-03T18:48:42.430Z,7.61
2023-02-03T18:51:10.914Z,7.66
2023-02-03T18:53:38.306Z,7.71
2023-02-03T18:56:09.693Z,7.74
2023-02-03T18:58:39.542Z,7.73
2023-02-03T19:01:06.694Z,7.72
2023-02-03T19:03:34.337Z,7.70
2023-02-03T19:06:00.827Z,7.69
2023-02-03T19:08:27.638Z,7.67
2023-02-03T19:10:54.971Z,7.67
2023-02-03T19:13:22.118Z,7.65
2023-02-03T19:15:49.410Z,7.65
2023-02-03T19:18:16.247Z,7.63
2023-02-03T19:20:44.060Z,7.63
2023-02-03T19:23:12.504Z,7.62
2023-02-03T19:25:39.845Z,7.61
2023-02-03T19:28:14.274Z,7.60
2023-02-03T19:30:44.369Z,7.59
2023-02-03T19:33:11.273Z,7.58
2023-02-03T19:35:38.599Z,7.59
2023-02-03T19:38:05.370Z,7.55
2023-02-03T19:40:32.005Z,7.55
2023-02-03T19:42:59.204Z,7.53
2023-02-03T19:45:25.879Z,7.53
2023-02-03T19:50:45.994Z,7.55
2023-02-03T19:55:54.554Z,7.61
2023-02-03T19:58:21.204Z,7.64
2023-02-03T20:00:47.775Z,7.66
2023-02-03T20:03:14.414Z,7.68
2023-02-03T20:05:40.872Z,7.68
2023-02-03T20:08:07.410Z,7.68
2023-02-03T20:10:44.680Z,7.67
2023-02-03T20:13:15.242Z,7.65
2023-02-03T20:15:42.452Z,7.64
2023-02-03T20:18:08.908Z,7.64
2023-02-03T20:20:35.759Z,7.63
2023-02-03T20:23:02.439Z,7.62
2023-02-03T20:25:28.890Z,7.62
2023-02-03T20:27:57.041Z,7.60
2023-02-03T20:30:23.559Z,7.59
2023-02-03T20:32:50.017Z,7.60
2023-02-03T20:35:16.620Z,7.61
2023-02-03T20:37:43.431Z,7.59
2023-02-03T20:40:22.962Z,7.59
2023-02-03T20:42:50.338Z,7.57
2023-02-03T20:45:19.419Z,7.56
2023-02-03T20:47:46.748Z,7.56
2023-02-03T20:50:19.370Z,7.56
2023-02-03T20:52:49.285Z,7.54
2023-02-03T20:55:21.993Z,7.55
2023-02-03T20:57:51.404Z,7.59
2023-02-03T21:00:26.558Z,7.61
2023-02-03T21:03:12.105Z,7.63
2023-02-03T21:05:44.546Z,7.65
2023-02-03T21:08:16.044Z,7.66
2023-02-03T21:10:44.298Z,7.67
2023-02-03T21:13:22.671Z,7.66
2023-02-03T21:15:51.279Z,7.65
2023-02-03T21:18:38.653Z,7.64
2023-02-03T21:21:13.912Z,7.64
2023-02-03T21:23:41.937Z,7.61
2023-02-03T21:26:26.359Z,7.60
2023-02-03T21:28:55.274Z,7.59
2023-02-03T21:31:31.553Z,7.58
2023-02-03T21:34:34.069Z,7.56
2023-02-03T21:37:11.545Z,7.57
2023-02-03T21:39:38.056Z,7.55
2023-02-03T21:42:16.443Z,7.54
2023-02-03T21:44:44.404Z,7.52
2023-02-03T21:47:18.529Z,7.53
2023-02-03T21:49:45.041Z,7.52
2023-02-03T21:52:13.508Z,7.50
2023-02-03T21:54:43.153Z,7.50
2023-02-03T21:57:12.936Z,7.49
2023-02-03T21:59:46.861Z,7.49
2023-02-03T22:02:52.843Z,7.51
2023-02-03T22:05:19.392Z,7.52
2023-02-03T22:07:45.793Z,7.55
2023-02-03T22:10:15.372Z,7.55
2023-02-03T22:12:41.804Z,7.57
2023-02-03T22:15:08.808Z,7.58
2023-02-03T22:17:35.206Z,7.56
2023-02-03T22:20:01.880Z,7.56
2023-02-03T22:22:30.781Z,7.55
2023-02-03T22:24:57.422Z,7.53
2023-02-03T22:27:25.388Z,7.52
2023-02-03T22:29:51.874Z,7.48
2023-02-03T22:32:18.322Z,7.48
2023-02-03T22:34:44.740Z,7.47
2023-02-03T22:37:11.128Z,7.45
2023-02-03T22:39:37.591Z,7.43
2023-02-03T22:42:04.207Z,7.42
2023-02-03T22:44:30.631Z,7.40
2023-02-03T22:46:57.040Z,7.40
2023-02-03T22:49:23.400Z,7.39
2023-02-03T22:51:49.905Z,7.37
2023-02-03T22:54:16.403Z,7.35
2023-02-03T22:56:42.871Z,7.34
2023-02-03T22:59:09.268Z,7.33
2023-02-03T23:01:38.067Z,7.32
2023-02-03T23:04:04.542Z,7.30
2023-02-03T23:06:31.063Z,7.32
2023-02-03T23:08:57.590Z,7.34
2023-02-03T23:11:24.186Z,7.39
2023-02-03T23:13:50.646Z,7.40
2023-02-03T23:16:17.130Z,7.41
2023-02-03T23:18:43.570Z,7.42
2023-02-03T23:21:10.158Z,7.41
2023-02-03T23:23:36.789Z,7.40
2023-02-03T23:26:03.242Z,7.39
2023-02-03T23:28:29.791Z,7.37
2023-02-03T23:30:56.477Z,7.37
2023-02-03T23:33:23.018Z,7.34
2023-02-03T23:35:50.813Z,7.33
2023-02-03T23:38:17.996Z,7.32
2023-02-03T23:40:44.960Z,7.31
2023-02-03T23:43:11.542Z,7.32
2023-02-03T23:45:37.974Z,7.31
2023-02-03T23:48:04.717Z,7.29
2023-02-03T23:50:31.644Z,7.28
2023-02-03T23:52:58.243Z,7.28
2023-02-03T23:55:24.946Z,7.27
2023-02-03T23:57:54.357Z,7.26
